sensor_id;sensor_type;location;lat;lon;timestamp;pressure;altitude;pressure_sealevel;temperature;humidity
50268;BME280;36153;50.960;6.220;2023-06-24T00:02:47;101425.97;;;23.58;54.71
50268;BME280;36153;50.960;6.220;2023-06-24T00:05:48;101423.72;;;23.44;55.10
50268;BME280;36153;50.960;6.220;2023-06-24T00:08:49;101424.00;;;23.33;55.37
50268;BME280;36153;50.960;6.220;2023-06-24T00:11:49;101417.78;;;23.32;55.65
50268;BME280;36153;50.960;6.220;2023-06-24T00:14:50;101416.06;;;23.31;56.11
50268;BME280;36153;50.960;6.220;2023-06-24T00:17:50;101420.38;;;23.35;55.83
50268;BME280;36153;50.960;6.220;2023-06-24T00:20:51;101415.13;;;23.34;56.04
50268;BME280;36153;50.960;6.220;2023-06-24T00:23:51;101424.09;;;23.30;55.97
50268;BME280;36153;50.960;6.220;2023-06-24T00:26:52;101420.44;;;23.34;56.54
50268;BME280;36153;50.960;6.220;2023-06-24T00:29:53;101409.75;;;23.35;55.90
50268;BME280;36153;50.960;6.220;2023-06-24T00:32:53;101422.06;;;23.38;55.72
50268;BME280;36153;50.960;6.220;2023-06-24T00:35:53;101417.72;;;23.35;55.68
50268;BME280;36153;50.960;6.220;2023-06-24T00:41:57;101414.00;;;23.08;56.42
50268;BME280;36153;50.960;6.220;2023-06-24T00:44:57;101416.78;;;23.04;56.61
50268;BME280;36153;50.960;6.220;2023-06-24T00:48:00;101419.56;;;22.97;56.86
50268;BME280;36153;50.960;6.220;2023-06-24T00:51:01;101416.81;;;23.02;56.37
50268;BME280;36153;50.960;6.220;2023-06-24T00:54:01;101414.97;;;23.04;56.54
50268;BME280;36153;50.960;6.220;2023-06-24T00:57:02;101414.94;;;23.06;56.49
50268;BME280;36153;50.960;6.220;2023-06-24T01:00:03;101417.53;;;23.07;56.05
50268;BME280;36153;50.960;6.220;2023-06-24T01:03:10;101417.00;;;22.94;56.64
50268;BME280;36153;50.960;6.220;2023-06-24T01:06:14;101410.03;;;22.90;56.56
50268;BME280;36153;50.960;6.220;2023-06-24T01:09:15;101418.66;;;22.98;56.31
50268;BME280;36153;50.960;6.220;2023-06-24T01:12:15;101417.25;;;22.83;55.95
50268;BME280;36153;50.960;6.220;2023-06-24T01:15:17;101424.44;;;22.80;56.60
50268;BME280;36153;50.960;6.220;2023-06-24T01:18:46;101425.41;;;22.77;57.59
50268;BME280;36153;50.960;6.220;2023-06-24T01:22:07;101424.59;;;22.74;57.65
50268;BME280;36153;50.960;6.220;2023-06-24T01:25:39;101419.28;;;22.74;57.35
50268;BME280;36153;50.960;6.220;2023-06-24T01:32:34;101419.34;;;22.71;57.32
50268;BME280;36153;50.960;6.220;2023-06-24T01:35:41;101416.78;;;22.67;57.23
50268;BME280;36153;50.960;6.220;2023-06-24T01:38:49;101425.56;;;22.70;56.80
50268;BME280;36153;50.960;6.220;2023-06-24T01:41:59;101423.09;;;22.63;56.99
50268;BME280;36153;50.960;6.220;2023-06-24T01:45:01;101419.63;;;22.60;56.96
50268;BME280;36153;50.960;6.220;2023-06-24T01:48:11;101416.22;;;22.53;57.26
50268;BME280;36153;50.960;6.220;2023-06-24T01:51:17;101413.69;;;22.48;57.92
50268;BME280;36153;50.960;6.220;2023-06-24T01:54:20;101407.44;;;22.51;57.44
50268;BME280;36153;50.960;6.220;2023-06-24T01:57:22;101411.00;;;22.50;57.61
50268;BME280;36153;50.960;6.220;2023-06-24T02:00:23;101404.91;;;22.46;57.43
50268;BME280;36153;50.960;6.220;2023-06-24T02:03:25;101411.00;;;22.50;57.57
50268;BME280;36153;50.960;6.220;2023-06-24T02:06:28;101412.88;;;22.45;57.35
50268;BME280;36153;50.960;6.220;2023-06-24T02:09:31;101397.94;;;22.42;57.19
50268;BME280;36153;50.960;6.220;2023-06-24T02:12:33;101406.63;;;22.47;57.13
50268;BME280;36153;50.960;6.220;2023-06-24T02:15:35;101410.09;;;22.51;57.40
50268;BME280;36153;50.960;6.220;2023-06-24T02:18:38;101402.19;;;22.49;57.12
50268;BME280;36153;50.960;6.220;2023-06-24T02:21:42;101400.47;;;22.47;57.25
50268;BME280;36153;50.960;6.220;2023-06-24T02:24:44;101406.72;;;22.44;57.36
50268;BME280;36153;50.960;6.220;2023-06-24T02:27:45;101404.72;;;22.54;57.04
50268;BME280;36153;50.960;6.220;2023-06-24T02:30:47;101409.25;;;22.49;56.80
50268;BME280;36153;50.960;6.220;2023-06-24T02:33:47;101409.41;;;22.43;57.14
50268;BME280;36153;50.960;6.220;2023-06-24T02:36:47;101407.81;;;22.36;57.54
50268;BME280;36153;50.960;6.220;2023-06-24T02:39:48;101421.13;;;22.32;57.71
50268;BME280;36153;50.960;6.220;2023-06-24T02:42:48;101415.72;;;22.37;57.98
50268;BME280;36153;50.960;6.220;2023-06-24T02:45:49;101413.94;;;22.38;57.60
50268;BME280;36153;50.960;6.220;2023-06-24T02:48:50;101409.66;;;22.30;57.82
50268;BME280;36153;50.960;6.220;2023-06-24T02:51:51;101408.03;;;22.25;58.18
50268;BME280;36153;50.960;6.220;2023-06-24T02:54:51;101409.63;;;22.33;57.82
50268;BME280;36153;50.960;6.220;2023-06-24T02:57:52;101406.09;;;22.31;57.79
50268;BME280;36153;50.960;6.220;2023-06-24T03:00:53;101409.66;;;22.30;57.49
50268;BME280;36153;50.960;6.220;2023-06-24T03:03:54;101419.47;;;22.27;57.77
50268;BME280;36153;50.960;6.220;2023-06-24T03:06:55;101418.78;;;22.17;57.96
50268;BME280;36153;50.960;6.220;2023-06-24T03:09:57;101418.00;;;22.13;58.05
50268;BME280;36153;50.960;6.220;2023-06-24T03:12:58;101417.19;;;22.10;58.52
50268;BME280;36153;50.960;6.220;2023-06-24T03:15:58;101421.50;;;22.14;58.63
50268;BME280;36153;50.960;6.220;2023-06-24T03:18:58;101425.91;;;22.15;58.55
50268;BME280;36153;50.960;6.220;2023-06-24T03:21:59;101429.41;;;22.17;58.71
50268;BME280;36153;50.960;6.220;2023-06-24T03:24:59;101433.94;;;22.12;58.63
50268;BME280;36153;50.960;6.220;2023-06-24T03:28:00;101437.50;;;22.11;58.73
50268;BME280;36153;50.960;6.220;2023-06-24T03:31:00;101440.22;;;22.08;58.93
50268;BME280;36153;50.960;6.220;2023-06-24T03:34:01;101436.69;;;22.09;58.60
50268;BME280;36153;50.960;6.220;2023-06-24T03:37:01;101436.72;;;22.06;59.13
50268;BME280;36153;50.960;6.220;2023-06-24T03:40:04;101442.84;;;22.09;59.20
50268;BME280;36153;50.960;6.220;2023-06-24T03:43:05;101443.66;;;22.13;58.81
50268;BME280;36153;50.960;6.220;2023-06-24T03:46:05;101449.94;;;22.09;58.85
50268;BME280;36153;50.960;6.220;2023-06-24T03:49:06;101448.97;;;22.11;58.93
50268;BME280;36153;50.960;6.220;2023-06-24T03:52:06;101456.91;;;22.13;58.74
50268;BME280;36153;50.960;6.220;2023-06-24T03:55:09;101457.94;;;22.06;59.23
50268;BME280;36153;50.960;6.220;2023-06-24T03:58:09;101465.63;;;22.18;58.76
50268;BME280;36153;50.960;6.220;2023-06-24T04:01:09;101464.72;;;22.19;58.62
50268;BME280;36153;50.960;6.220;2023-06-24T04:04:10;101466.47;;;22.20;58.56
50268;BME280;36153;50.960;6.220;2023-06-24T04:07:10;101461.97;;;22.24;58.31
50268;BME280;36153;50.960;6.220;2023-06-24T04:10:10;101466.28;;;22.28;57.99
50268;BME280;36153;50.960;6.220;2023-06-24T04:13:11;101470.56;;;22.37;58.57
50268;BME280;36153;50.960;6.220;2023-06-24T04:16:11;101478.47;;;22.40;58.65
50268;BME280;36153;50.960;6.220;2023-06-24T04:19:12;101460.72;;;22.42;58.35
50268;BME280;36153;50.960;6.220;2023-06-24T04:22:13;101470.16;;;22.55;58.03
50268;BME280;36153;50.960;6.220;2023-06-24T04:25:13;101466.28;;;22.68;57.40
50268;BME280;36153;50.960;6.220;2023-06-24T04:28:13;101465.16;;;22.79;57.29
50268;BME280;36153;50.960;6.220;2023-06-24T04:31:14;101472.38;;;22.74;57.88
50268;BME280;36153;50.960;6.220;2023-06-24T04:34:14;101465.94;;;22.82;57.45
50268;BME280;36153;50.960;6.220;2023-06-24T04:37:14;101472.00;;;22.89;57.36
50268;BME280;36153;50.960;6.220;2023-06-24T04:40:16;101473.53;;;22.99;57.04
50268;BME280;36153;50.960;6.220;2023-06-24T04:43:16;101476.00;;;23.06;56.89
50268;BME280;36153;50.960;6.220;2023-06-24T04:46:17;101486.53;;;23.12;56.77
50268;BME280;36153;50.960;6.220;2023-06-24T04:49:17;101479.34;;;23.15;56.94
50268;BME280;36153;50.960;6.220;2023-06-24T04:52:17;101477.41;;;23.22;56.95
50268;BME280;36153;50.960;6.220;2023-06-24T04:55:18;101472.84;;;23.27;56.94
50268;BME280;36153;50.960;6.220;2023-06-24T04:58:19;101481.50;;;23.35;57.01
50268;BME280;36153;50.960;6.220;2023-06-24T05:01:19;101472.44;;;23.43;56.53
50268;BME280;36153;50.960;6.220;2023-06-24T05:04:20;101468.97;;;23.39;56.72
50268;BME280;36153;50.960;6.220;2023-06-24T05:07:20;101475.91;;;23.45;56.12
50268;BME280;36153;50.960;6.220;2023-06-24T05:10:20;101477.25;;;23.61;56.46
50268;BME280;36153;50.960;6.220;2023-06-24T05:13:21;101475.06;;;23.76;56.17
50268;BME280;36153;50.960;6.220;2023-06-24T05:16:21;101471.25;;;23.88;55.42
50268;BME280;36153;50.960;6.220;2023-06-24T05:19:22;101468.59;;;23.86;55.32
50268;BME280;36153;50.960;6.220;2023-06-24T05:22:23;101463.22;;;23.89;55.83
50268;BME280;36153;50.960;6.220;2023-06-24T05:25:23;101467.38;;;23.99;55.64
50268;BME280;36153;50.960;6.220;2023-06-24T05:28:24;101463.59;;;24.07;55.39
50268;BME280;36153;50.960;6.220;2023-06-24T05:31:24;101464.88;;;24.23;54.90
50268;BME280;36153;50.960;6.220;2023-06-24T05:34:24;101461.75;;;24.39;54.56
50268;BME280;36153;50.960;6.220;2023-06-24T05:37:25;101460.31;;;24.55;53.99
50268;BME280;36153;50.960;6.220;2023-06-24T05:40:25;101467.66;;;24.48;53.94
50268;BME280;36153;50.960;6.220;2023-06-24T05:43:25;101467.50;;;24.53;53.85
50268;BME280;36153;50.960;6.220;2023-06-24T05:46:26;101476.97;;;24.63;53.69
50268;BME280;36153;50.960;6.220;2023-06-24T05:49:26;101468.69;;;24.73;53.61
50268;BME280;36153;50.960;6.220;2023-06-24T05:52:26;101475.03;;;24.95;53.22
50268;BME280;36153;50.960;6.220;2023-06-24T05:55:29;101468.41;;;25.09;52.75
50268;BME280;36153;50.960;6.220;2023-06-24T05:58:29;101471.06;;;25.09;52.56
50268;BME280;36153;50.960;6.220;2023-06-24T06:01:29;101471.63;;;25.18;52.08
50268;BME280;36153;50.960;6.220;2023-06-24T06:04:30;101472.28;;;25.25;52.09
50268;BME280;36153;50.960;6.220;2023-06-24T06:07:30;101471.38;;;25.26;51.77
50268;BME280;36153;50.960;6.220;2023-06-24T06:10:30;101475.25;;;25.43;51.19
50268;BME280;36153;50.960;6.220;2023-06-24T06:13:31;101480.91;;;25.59;50.76
50268;BME280;36153;50.960;6.220;2023-06-24T06:16:31;101482.59;;;25.61;50.46
50268;BME280;36153;50.960;6.220;2023-06-24T06:19:32;101481.81;;;25.83;50.12
50268;BME280;36153;50.960;6.220;2023-06-24T06:22:32;101484.72;;;26.00;49.90
50268;BME280;36153;50.960;6.220;2023-06-24T06:25:37;101480.59;;;25.92;50.07
50268;BME280;36153;50.960;6.220;2023-06-24T06:28:38;101490.19;;;25.97;49.86
50268;BME280;36153;50.960;6.220;2023-06-24T06:31:38;101492.22;;;25.65;49.62
50268;BME280;36153;50.960;6.220;2023-06-24T06:34:39;101495.13;;;25.83;49.11
50268;BME280;36153;50.960;6.220;2023-06-24T06:37:40;101501.66;;;25.99;48.44
50268;BME280;36153;50.960;6.220;2023-06-24T06:40:40;101494.75;;;25.94;48.19
50268;BME280;36153;50.960;6.220;2023-06-24T06:43:40;101496.28;;;26.24;47.47
50268;BME280;36153;50.960;6.220;2023-06-24T06:46:41;101492.41;;;26.10;47.39
50268;BME280;36153;50.960;6.220;2023-06-24T06:49:41;101499.41;;;26.36;47.16
50268;BME280;36153;50.960;6.220;2023-06-24T06:52:41;101502.19;;;26.33;47.30
50268;BME280;36153;50.960;6.220;2023-06-24T06:55:42;101503.13;;;26.32;47.15
50268;BME280;36153;50.960;6.220;2023-06-24T06:58:43;101498.25;;;26.65;46.01
50268;BME280;36153;50.960;6.220;2023-06-24T07:01:43;101495.78;;;27.05;45.79
50268;BME280;36153;50.960;6.220;2023-06-24T07:04:44;101511.25;;;26.97;45.43
50268;BME280;36153;50.960;6.220;2023-06-24T07:07:45;101497.66;;;27.03;45.33
50268;BME280;36153;50.960;6.220;2023-06-24T07:10:45;101502.66;;;27.11;44.89
50268;BME280;36153;50.960;6.220;2023-06-24T07:13:46;101499.47;;;27.23;44.63
50268;BME280;36153;50.960;6.220;2023-06-24T07:16:46;101495.66;;;27.51;44.41
50268;BME280;36153;50.960;6.220;2023-06-24T07:19:46;101498.16;;;27.74;43.00
50268;BME280;36153;50.960;6.220;2023-06-24T07:22:47;101498.53;;;27.86;42.79
50268;BME280;36153;50.960;6.220;2023-06-24T07:25:47;101495.59;;;27.92;42.83
50268;BME280;36153;50.960;6.220;2023-06-24T07:28:47;101495.63;;;28.11;42.91
50268;BME280;36153;50.960;6.220;2023-06-24T07:31:48;101496.72;;;28.26;41.87
50268;BME280;36153;50.960;6.220;2023-06-24T07:34:48;101498.03;;;28.36;41.80
50268;BME280;36153;50.960;6.220;2023-06-24T07:37:49;101498.91;;;28.18;42.14
50268;BME280;36153;50.960;6.220;2023-06-24T07:40:49;101499.56;;;28.23;41.85
50268;BME280;36153;50.960;6.220;2023-06-24T07:43:49;101501.56;;;28.56;41.14
50268;BME280;36153;50.960;6.220;2023-06-24T07:46:50;101504.03;;;28.41;40.86
50268;BME280;36153;50.960;6.220;2023-06-24T07:49:51;101503.53;;;28.71;40.35
50268;BME280;36153;50.960;6.220;2023-06-24T07:52:52;101507.06;;;28.72;39.91
50268;BME280;36153;50.960;6.220;2023-06-24T07:55:52;101505.22;;;28.91;38.65
50268;BME280;36153;50.960;6.220;2023-06-24T07:58:52;101497.63;;;28.82;39.09
50268;BME280;36153;50.960;6.220;2023-06-24T08:01:53;101499.53;;;29.34;39.00
50268;BME280;36153;50.960;6.220;2023-06-24T08:04:54;101494.56;;;29.44;39.05
50268;BME280;36153;50.960;6.220;2023-06-24T08:07:54;101494.16;;;29.34;38.20
50268;BME280;36153;50.960;6.220;2023-06-24T08:10:55;101502.00;;;29.55;38.12
50268;BME280;36153;50.960;6.220;2023-06-24T08:13:55;101500.59;;;29.48;38.09
50268;BME280;36153;50.960;6.220;2023-06-24T08:16:55;101493.84;;;29.40;36.69
50268;BME280;36153;50.960;6.220;2023-06-24T08:19:56;101498.09;;;29.44;38.07
50268;BME280;36153;50.960;6.220;2023-06-24T08:22:56;101503.41;;;29.97;37.56
50268;BME280;36153;50.960;6.220;2023-06-24T08:25:56;101501.50;;;29.82;38.11
50268;BME280;36153;50.960;6.220;2023-06-24T08:28:57;101503.41;;;29.97;37.55
50268;BME280;36153;50.960;6.220;2023-06-24T08:31:59;101507.78;;;30.32;37.20
50268;BME280;36153;50.960;6.220;2023-06-24T08:34:59;101500.69;;;30.46;37.11
50268;BME280;36153;50.960;6.220;2023-06-24T08:38:00;101511.72;;;30.58;37.17
50268;BME280;36153;50.960;6.220;2023-06-24T08:41:00;101505.19;;;30.62;37.90
50268;BME280;36153;50.960;6.220;2023-06-24T08:44:00;101500.16;;;30.72;37.44
50268;BME280;36153;50.960;6.220;2023-06-24T08:47:01;101492.91;;;30.58;37.56
50268;BME280;36153;50.960;6.220;2023-06-24T08:50:04;101488.72;;;30.68;37.27
50268;BME280;36153;50.960;6.220;2023-06-24T08:53:07;101488.63;;;31.16;36.50
50268;BME280;36153;50.960;6.220;2023-06-24T08:56:11;101489.50;;;31.17;36.44
50268;BME280;36153;50.960;6.220;2023-06-24T08:59:11;101489.53;;;31.45;36.42
50268;BME280;36153;50.960;6.220;2023-06-24T09:02:12;101495.59;;;31.35;36.73
50268;BME280;36153;50.960;6.220;2023-06-24T09:05:13;101489.75;;;30.81;36.26
50268;BME280;36153;50.960;6.220;2023-06-24T09:08:14;101484.72;;;30.75;36.11
50268;BME280;36153;50.960;6.220;2023-06-24T09:11:22;101487.63;;;30.87;35.31
50268;BME280;36153;50.960;6.220;2023-06-24T09:14:24;101482.16;;;31.04;35.63
50268;BME280;36153;50.960;6.220;2023-06-24T09:17:25;101489.50;;;31.17;35.10
50268;BME280;36153;50.960;6.220;2023-06-24T09:20:26;101483.09;;;31.34;34.47
50268;BME280;36153;50.960;6.220;2023-06-24T09:23:26;101475.47;;;31.85;33.63
50268;BME280;36153;50.960;6.220;2023-06-24T09:26:38;101477.38;;;32.12;31.89
50268;BME280;36153;50.960;6.220;2023-06-24T09:29:40;101471.34;;;32.08;33.79
50268;BME280;36153;50.960;6.220;2023-06-24T09:32:43;101476.28;;;32.43;33.17
50268;BME280;36153;50.960;6.220;2023-06-24T09:35:43;101469.38;;;32.39;32.89
50268;BME280;36153;50.960;6.220;2023-06-24T09:38:45;101464.69;;;32.56;32.60
50268;BME280;36153;50.960;6.220;2023-06-24T09:41:49;101464.94;;;32.65;32.24
50268;BME280;36153;50.960;6.220;2023-06-24T09:44:54;101459.66;;;32.08;30.78
50268;BME280;36153;50.960;6.220;2023-06-24T09:47:56;101455.44;;;32.32;31.60
50268;BME280;36153;50.960;6.220;2023-06-24T09:51:01;101455.56;;;31.73;31.65
50268;BME280;36153;50.960;6.220;2023-06-24T09:54:05;101452.69;;;31.91;31.61
50268;BME280;36153;50.960;6.220;2023-06-24T09:57:07;101440.16;;;32.19;30.61
50268;BME280;36153;50.960;6.220;2023-06-24T10:00:10;101447.09;;;32.23;30.66
50268;BME280;36153;50.960;6.220;2023-06-24T10:03:11;101440.75;;;32.24;30.29
50268;BME280;36153;50.960;6.220;2023-06-24T10:06:11;101439.75;;;32.25;29.80
50268;BME280;36153;50.960;6.220;2023-06-24T10:09:12;101434.72;;;32.60;30.42
50268;BME280;36153;50.960;6.220;2023-06-24T10:12:16;101427.09;;;32.67;28.98
50268;BME280;36153;50.960;6.220;2023-06-24T10:15:17;101433.03;;;32.32;28.17
50268;BME280;36153;50.960;6.220;2023-06-24T10:18:37;101424.97;;;32.72;27.12
50268;BME280;36153;50.960;6.220;2023-06-24T10:21:51;101428.81;;;33.08;26.98
50268;BME280;36153;50.960;6.220;2023-06-24T10:24:52;101418.41;;;33.29;27.25
50268;BME280;36153;50.960;6.220;2023-06-24T10:27:54;101431.44;;;33.23;26.84
50268;BME280;36153;50.960;6.220;2023-06-24T10:30:55;101420.38;;;33.00;27.22
50268;BME280;36153;50.960;6.220;2023-06-24T10:33:58;101417.59;;;33.01;27.75
50268;BME280;36153;50.960;6.220;2023-06-24T10:40:37;101411.13;;;33.56;27.66
50268;BME280;36153;50.960;6.220;2023-06-24T10:43:38;101412.78;;;33.45;27.87
50268;BME280;36153;50.960;6.220;2023-06-24T10:46:39;101403.38;;;33.38;28.80
50268;BME280;36153;50.960;6.220;2023-06-24T10:49:39;101403.56;;;33.61;28.31
50268;BME280;36153;50.960;6.220;2023-06-24T10:52:45;101398.00;;;33.38;27.36
50268;BME280;36153;50.960;6.220;2023-06-24T10:55:46;101395.56;;;33.72;27.15
50268;BME280;36153;50.960;6.220;2023-06-24T10:58:56;101392.66;;;33.88;28.83
50268;BME280;36153;50.960;6.220;2023-06-24T11:01:56;101390.34;;;33.45;26.40
50268;BME280;36153;50.960;6.220;2023-06-24T11:05:01;101387.19;;;33.77;25.57
50268;BME280;36153;50.960;6.220;2023-06-24T11:08:01;101384.56;;;33.75;26.40
50268;BME280;36153;50.960;6.220;2023-06-24T11:11:02;101375.75;;;33.97;25.20
50268;BME280;36153;50.960;6.220;2023-06-24T11:14:04;101376.75;;;33.96;24.73
50268;BME280;36153;50.960;6.220;2023-06-24T11:17:05;101364.16;;;34.57;24.81
50268;BME280;36153;50.960;6.220;2023-06-24T11:20:12;101369.44;;;34.94;23.29
50268;BME280;36153;50.960;6.220;2023-06-24T11:23:13;101363.91;;;34.60;24.36
50268;BME280;36153;50.960;6.220;2023-06-24T11:26:14;101362.69;;;34.64;23.79
50268;BME280;36153;50.960;6.220;2023-06-24T11:29:15;101366.59;;;34.84;23.40
50268;BME280;36153;50.960;6.220;2023-06-24T11:32:15;101357.88;;;34.92;23.57
50268;BME280;36153;50.960;6.220;2023-06-24T11:35:16;101360.00;;;35.11;22.73
50268;BME280;36153;50.960;6.220;2023-06-24T11:38:16;101355.69;;;34.73;22.42
50268;BME280;36153;50.960;6.220;2023-06-24T11:41:21;101349.88;;;34.90;22.02
50268;BME280;36153;50.960;6.220;2023-06-24T11:44:23;101350.06;;;34.64;21.94
50268;BME280;36153;50.960;6.220;2023-06-24T11:47:24;101353.03;;;34.37;22.80
50268;BME280;36153;50.960;6.220;2023-06-24T11:50:27;101360.75;;;34.66;23.08
50268;BME280;36153;50.960;6.220;2023-06-24T11:53:39;101349.56;;;34.35;21.96
50268;BME280;36153;50.960;6.220;2023-06-24T11:56:41;101352.19;;;34.83;22.54
50268;BME280;36153;50.960;6.220;2023-06-24T11:59:42;101350.25;;;34.85;22.13
50268;BME280;36153;50.960;6.220;2023-06-24T12:02:42;101353.06;;;34.84;22.02
50268;BME280;36153;50.960;6.220;2023-06-24T12:05:47;101348.09;;;34.18;21.90
50268;BME280;36153;50.960;6.220;2023-06-24T12:08:47;101343.13;;;34.96;20.98
50268;BME280;36153;50.960;6.220;2023-06-24T12:11:48;101330.81;;;34.92;21.13
50268;BME280;36153;50.960;6.220;2023-06-24T12:14:48;101334.75;;;35.10;21.03
50268;BME280;36153;50.960;6.220;2023-06-24T12:17:48;101327.25;;;35.70;19.52
50268;BME280;36153;50.960;6.220;2023-06-24T12:20:49;101326.69;;;35.33;19.88
50268;BME280;36153;50.960;6.220;2023-06-24T12:23:49;101337.13;;;35.49;20.01
50268;BME280;36153;50.960;6.220;2023-06-24T12:26:49;101323.13;;;35.44;20.39
50268;BME280;36153;50.960;6.220;2023-06-24T12:29:51;101328.31;;;35.91;19.55
50268;BME280;36153;50.960;6.220;2023-06-24T12:32:51;101330.63;;;35.40;20.29
50268;BME280;36153;50.960;6.220;2023-06-24T12:35:52;101326.44;;;35.36;19.84
50268;BME280;36153;50.960;6.220;2023-06-24T12:38:52;101321.25;;;35.44;19.79
50268;BME280;36153;50.960;6.220;2023-06-24T12:41:53;101317.22;;;35.94;19.57
50268;BME280;36153;50.960;6.220;2023-06-24T12:44:53;101323.16;;;35.76;19.80
50268;BME280;36153;50.960;6.220;2023-06-24T12:47:54;101313.81;;;35.92;18.82
50268;BME280;36153;50.960;6.220;2023-06-24T12:50:54;101312.69;;;35.94;18.51
50268;BME280;36153;50.960;6.220;2023-06-24T12:53:55;101308.66;;;35.88;18.87
50268;BME280;36153;50.960;6.220;2023-06-24T12:56:55;101304.81;;;35.91;18.20
50268;BME280;36153;50.960;6.220;2023-06-24T12:59:55;101310.56;;;36.94;17.97
50268;BME280;36153;50.960;6.220;2023-06-24T13:02:56;101307.63;;;36.54;17.74
50268;BME280;36153;50.960;6.220;2023-06-24T13:05:56;101304.19;;;36.52;18.34
50268;BME280;36153;50.960;6.220;2023-06-24T13:08:57;101296.66;;;36.02;18.75
50268;BME280;36153;50.960;6.220;2023-06-24T13:11:57;101305.22;;;35.64;18.91
50268;BME280;36153;50.960;6.220;2023-06-24T13:14:58;101309.75;;;36.18;18.75
50268;BME280;36153;50.960;6.220;2023-06-24T13:17:59;101308.28;;;36.14;18.37
50268;BME280;36153;50.960;6.220;2023-06-24T13:20:59;101298.13;;;36.28;17.60
50268;BME280;36153;50.960;6.220;2023-06-24T13:23:59;101302.34;;;37.05;18.13
50268;BME280;36153;50.960;6.220;2023-06-24T13:27:00;101300.41;;;36.86;18.21
50268;BME280;36153;50.960;6.220;2023-06-24T13:30:00;101292.72;;;37.22;18.51
50268;BME280;36153;50.960;6.220;2023-06-24T13:33:00;101283.97;;;37.18;18.14
50268;BME280;36153;50.960;6.220;2023-06-24T13:36:01;101284.38;;;37.54;18.47
50268;BME280;36153;50.960;6.220;2023-06-24T13:39:05;101288.47;;;37.29;18.86
50268;BME280;36153;50.960;6.220;2023-06-24T13:42:06;101295.75;;;36.98;19.56
50268;BME280;36153;50.960;6.220;2023-06-24T13:45:07;101285.97;;;36.85;19.24
50268;BME280;36153;50.960;6.220;2023-06-24T13:48:07;101278.66;;;37.07;19.23
50268;BME280;36153;50.960;6.220;2023-06-24T13:51:08;101281.97;;;37.61;19.47
50268;BME280;36153;50.960;6.220;2023-06-24T13:54:08;101274.50;;;37.44;18.83
50268;BME280;36153;50.960;6.220;2023-06-24T13:57:08;101271.41;;;37.27;18.81
50268;BME280;36153;50.960;6.220;2023-06-24T14:00:09;101275.38;;;37.44;18.95
50268;BME280;36153;50.960;6.220;2023-06-24T14:03:11;101270.13;;;37.21;19.28
50268;BME280;36153;50.960;6.220;2023-06-24T14:06:14;101259.28;;;38.01;18.75
50268;BME280;36153;50.960;6.220;2023-06-24T14:09:15;101270.03;;;37.83;18.80
50268;BME280;36153;50.960;6.220;2023-06-24T14:12:16;101269.00;;;37.84;18.16
50268;BME280;36153;50.960;6.220;2023-06-24T14:15:16;101260.94;;;37.63;17.33
50268;BME280;36153;50.960;6.220;2023-06-24T14:18:17;101259.81;;;37.66;17.96
50268;BME280;36153;50.960;6.220;2023-06-24T14:21:18;101263.63;;;37.44;18.27
50268;BME280;36153;50.960;6.220;2023-06-24T14:24:18;101263.22;;;37.48;17.05
50268;BME280;36153;50.960;6.220;2023-06-24T14:27:18;101251.50;;;37.57;17.05
50268;BME280;36153;50.960;6.220;2023-06-24T14:30:19;101254.72;;;37.82;17.31
50268;BME280;36153;50.960;6.220;2023-06-24T14:33:19;101250.06;;;37.53;17.18
50268;BME280;36153;50.960;6.220;2023-06-24T14:36:19;101245.78;;;37.51;16.79
50268;BME280;36153;50.960;6.220;2023-06-24T14:39:20;101240.50;;;37.49;17.12
50268;BME280;36153;50.960;6.220;2023-06-24T14:42:20;101246.22;;;37.66;17.48
50268;BME280;36153;50.960;6.220;2023-06-24T14:45:20;101236.50;;;37.73;17.01
50268;BME280;36153;50.960;6.220;2023-06-24T14:48:21;101227.81;;;37.69;17.27
50268;BME280;36153;50.960;6.220;2023-06-24T14:51:24;101226.78;;;37.61;17.02
50268;BME280;36153;50.960;6.220;2023-06-24T14:54:24;101218.09;;;37.86;16.80
50268;BME280;36153;50.960;6.220;2023-06-24T14:57:24;101225.25;;;38.27;16.85
50268;BME280;36153;50.960;6.220;2023-06-24T15:00:25;101219.66;;;38.08;17.33
50268;BME280;36153;50.960;6.220;2023-06-24T15:03:26;101217.38;;;37.14;18.35
50268;BME280;36153;50.960;6.220;2023-06-24T15:06:26;101216.78;;;36.70;18.60
50268;BME280;36153;50.960;6.220;2023-06-24T15:09:26;101213.34;;;36.68;18.62
50268;BME280;36153;50.960;6.220;2023-06-24T15:12:27;101215.75;;;37.33;19.08
50268;BME280;36153;50.960;6.220;2023-06-24T15:15:27;101212.63;;;37.47;18.03
50268;BME280;36153;50.960;6.220;2023-06-24T15:18:28;101205.81;;;37.82;17.49
50268;BME280;36153;50.960;6.220;2023-06-24T15:21:29;101206.72;;;38.40;17.68
50268;BME280;36153;50.960;6.220;2023-06-24T15:24:29;101203.38;;;37.99;18.78
50268;BME280;36153;50.960;6.220;2023-06-24T15:27:29;101195.78;;;37.92;19.14
50268;BME280;36153;50.960;6.220;2023-06-24T15:30:30;101199.91;;;37.57;19.53
50268;BME280;36153;50.960;6.220;2023-06-24T15:33:30;101196.81;;;37.12;20.01
50268;BME280;36153;50.960;6.220;2023-06-24T15:36:30;101197.03;;;37.39;20.03
50268;BME280;36153;50.960;6.220;2023-06-24T15:39:31;101190.63;;;37.99;19.63
50268;BME280;36153;50.960;6.220;2023-06-24T15:42:31;101192.63;;;38.07;19.24
50268;BME280;36153;50.960;6.220;2023-06-24T15:45:31;101190.44;;;37.32;19.58
50268;BME280;36153;50.960;6.220;2023-06-24T15:48:32;101184.47;;;37.68;19.27
50268;BME280;36153;50.960;6.220;2023-06-24T15:51:33;101180.75;;;37.88;18.97
50268;BME280;36153;50.960;6.220;2023-06-24T15:54:33;101179.63;;;37.81;19.40
50268;BME280;36153;50.960;6.220;2023-06-24T15:57:33;101191.31;;;38.11;18.88
50268;BME280;36153;50.960;6.220;2023-06-24T16:00:34;101185.91;;;38.68;18.43